»·PEaware :: N9BR KLBB-KGCN

N9BR :: KLBB-KGCN

FLIGHT INFORMATION

Flight Status: Arrived
Operator: Privately registered:
United States
More flights under this callsign
Pilot: John H. (7647)
Aircraft: Unknown
(M20R)
More flights by this aircraft type
Origin: KLBB Lubbock Intl
United States
Destination: KGCN Grand Canyon Natl Park
United States
More flights between these airports :: More routes between these airports
Route: LBB V62 ACH V12 ABQ V291 GUP V291 FLG
File this flight plan on PilotEdge
Remarks:
Altitude:
(Current/Filed)
10,500ft
Speed:
(Current/Filed)
180kts
Departed: 22-Jul-18 04:46 AM
Arrived: 22-Jul-18 08:21 AM
Distance/Time
Traveled:
526nm/3:35
Distance/Time
To Go:
Arrived

Flight Plot

Page will automatically refresh every two minutes.

Flight plan parsing failed; only flown route is shown


Map Options




Map Legend


Flown Route
Filed Route
Departure Airport
Arrival Airport
Navaid (VOR, NDB)
Fix

Horizontal Profiles

Position Reports

Time Latitude Longitude Heading Altitude Ground
Speed
22-Jul-18 04:39 33.657842 -101.815859 89 3253ft 0kts
22-Jul-18 04:40 33.657940 -101.815724 20 3253ft 3kts
22-Jul-18 04:41 33.659787 -101.815624 0 3253ft 8kts
22-Jul-18 04:42 33.660377 -101.812110 88 3250ft 14kts
22-Jul-18 04:43 33.660398 -101.806485 89 3248ft 17kts
22-Jul-18 04:44 33.660428 -101.800695 89 3248ft 18kts
22-Jul-18 04:45 33.661542 -101.796768 359 3244ft 10kts
22-Jul-18 04:46 33.662352 -101.797280 269 3246ft 0kts
22-Jul-18 04:47 33.662197 -101.810334 265 3370ft 92kts
22-Jul-18 04:48 33.672458 -101.836205 353 4234ft 112kts
22-Jul-18 04:49 33.686017 -101.861588 282 5256ft 108kts
22-Jul-18 04:50 33.696932 -101.895178 294 6371ft 110kts
22-Jul-18 04:51 33.714497 -101.925096 313 7409ft 113kts
22-Jul-18 04:52 33.737154 -101.951437 313 8385ft 115kts
22-Jul-18 04:53 33.759746 -101.977584 314 9285ft 116kts
22-Jul-18 04:54 33.783188 -102.004726 314 10141ft 118kts
22-Jul-18 04:55 33.809000 -102.034660 313 10504ft 151kts
22-Jul-18 04:56 33.842578 -102.073576 314 10502ft 180kts
22-Jul-18 04:57 33.879324 -102.116227 314 10501ft 185kts
22-Jul-18 04:58 33.915658 -102.158479 313 10500ft 181kts
22-Jul-18 04:59 33.951608 -102.200352 314 10501ft 180kts
22-Jul-18 05:00 33.987769 -102.242535 314 10500ft 181kts
22-Jul-18 05:01 34.023776 -102.284681 313 10501ft 183kts
22-Jul-18 05:02 34.060223 -102.327313 314 10500ft 183kts
22-Jul-18 05:03 34.096719 -102.370031 314 10501ft 183kts
22-Jul-18 05:04 34.132848 -102.412372 314 10503ft 183kts
22-Jul-18 05:05 34.169377 -102.455238 313 10500ft 183kts
22-Jul-18 05:06 34.205767 -102.498007 314 10515ft 183kts
22-Jul-18 05:07 34.242024 -102.540652 314 10554ft 185kts
22-Jul-18 05:08 34.278937 -102.584133 314 10555ft 187kts
22-Jul-18 05:09 34.315972 -102.627823 314 10581ft 185kts
22-Jul-18 05:10 34.352119 -102.670514 313 10582ft 185kts
22-Jul-18 05:11 34.388987 -102.714114 313 10583ft 185kts
22-Jul-18 05:12 34.426085 -102.758035 313 10555ft 186kts
22-Jul-18 05:13 34.463007 -102.801810 313 10557ft 186kts
22-Jul-18 05:14 34.496491 -102.847318 290 10586ft 182kts
22-Jul-18 05:15 34.513736 -102.904486 288 10582ft 180kts
22-Jul-18 05:16 34.530325 -102.961363 288 10582ft 179kts
22-Jul-18 05:17 34.546862 -103.018378 288 10581ft 179kts
22-Jul-18 05:18 34.563138 -103.074633 288 10582ft 179kts
22-Jul-18 05:19 34.579576 -103.131568 288 10582ft 179kts
22-Jul-18 05:20 34.595982 -103.188508 287 10582ft 179kts
22-Jul-18 05:21 34.612312 -103.245300 287 10582ft 179kts
22-Jul-18 05:22 34.628612 -103.302082 288 10584ft 179kts
22-Jul-18 05:23 34.644996 -103.359290 288 10581ft 179kts
22-Jul-18 05:24 34.661355 -103.416510 287 10548ft 181kts
22-Jul-18 05:25 34.677820 -103.474230 286 10527ft 181kts
22-Jul-18 05:26 34.694183 -103.531712 287 10529ft 181kts
22-Jul-18 05:27 34.710543 -103.589315 287 10527ft 181kts
22-Jul-18 05:28 34.726729 -103.646399 287 10527ft 181kts
22-Jul-18 05:29 34.742100 -103.700740 286 10529ft 181kts
22-Jul-18 05:30 34.757673 -103.755907 286 10529ft 181kts
22-Jul-18 05:31 34.772856 -103.809790 286 10529ft 181kts
22-Jul-18 05:32 34.787767 -103.862809 286 10527ft 181kts
22-Jul-18 05:33 34.802485 -103.915226 286 10528ft 181kts
22-Jul-18 05:34 34.817188 -103.967703 286 10530ft 181kts
22-Jul-18 05:35 34.831832 -104.020070 286 10531ft 181kts
22-Jul-18 05:36 34.846414 -104.072321 286 10528ft 181kts
22-Jul-18 05:37 34.861048 -104.124842 286 10527ft 181kts
22-Jul-18 05:38 34.875768 -104.177792 286 10528ft 181kts
22-Jul-18 05:39 34.890488 -104.230829 286 10528ft 181kts
22-Jul-18 05:40 34.905206 -104.283970 286 10530ft 181kts
22-Jul-18 05:41 34.919947 -104.337275 286 10527ft 181kts
22-Jul-18 05:42 34.934502 -104.390036 286 10527ft 181kts
22-Jul-18 05:43 34.948672 -104.441458 286 10525ft 179kts
22-Jul-18 05:44 34.962723 -104.492598 286 10528ft 179kts
22-Jul-18 05:45 34.976574 -104.543077 286 10528ft 179kts
22-Jul-18 05:46 34.990530 -104.594042 286 10528ft 179kts
22-Jul-18 05:47 35.004316 -104.644534 289 10677ft 175kts
22-Jul-18 05:48 35.017440 -104.692571 288 10744ft 180kts
22-Jul-18 05:49 35.031473 -104.744077 288 10744ft 183kts
22-Jul-18 05:50 35.045555 -104.795865 288 10743ft 184kts
22-Jul-18 05:51 35.059577 -104.847553 288 10744ft 185kts
22-Jul-18 05:52 35.073128 -104.897592 288 10743ft 185kts
22-Jul-18 05:53 35.086367 -104.946562 288 10744ft 185kts
22-Jul-18 05:54 35.099441 -104.995016 288 10745ft 185kts
22-Jul-18 05:55 35.110839 -105.042414 271 10743ft 185kts
22-Jul-18 05:56 35.109188 -105.096431 267 10744ft 185kts
22-Jul-18 05:57 35.106951 -105.152392 267 10747ft 185kts
22-Jul-18 05:58 35.104429 -105.213157 268 10744ft 185kts
22-Jul-18 05:59 35.101887 -105.273927 268 10745ft 186kts
22-Jul-18 06:00 35.099594 -105.328054 268 10746ft 187kts
22-Jul-18 06:01 35.097043 -105.387597 268 10747ft 187kts
22-Jul-18 06:02 35.094361 -105.449309 268 10741ft 187kts
22-Jul-18 06:03 35.091631 -105.511400 268 10745ft 187kts
22-Jul-18 06:04 35.088936 -105.572226 268 10740ft 187kts
22-Jul-18 06:05 35.086099 -105.635062 268 10746ft 187kts
22-Jul-18 06:06 35.083398 -105.694502 267 10746ft 187kts
22-Jul-18 06:07 35.080515 -105.757132 267 10745ft 187kts
22-Jul-18 06:08 35.077618 -105.819382 267 10744ft 187kts
22-Jul-18 06:09 35.074673 -105.882084 267 10744ft 187kts
22-Jul-18 06:10 35.071869 -105.944194 268 10743ft 187kts
22-Jul-18 06:11 35.070067 -106.006389 268 10743ft 187kts
22-Jul-18 06:12 35.068220 -106.069015 267 10717ft 186kts
22-Jul-18 06:13 35.066343 -106.131453 267 10717ft 185kts
22-Jul-18 06:14 35.064452 -106.193476 267 10717ft 185kts
22-Jul-18 06:15 35.062634 -106.251795 267 10713ft 185kts
22-Jul-18 06:16 35.061035 -106.302122 267 10717ft 185kts
22-Jul-18 06:17 35.059039 -106.364552 267 10720ft 185kts
22-Jul-18 06:18 35.057026 -106.426401 267 10674ft 187kts
22-Jul-18 06:19 35.054970 -106.488670 267 10665ft 186kts
22-Jul-18 06:20 35.053013 -106.547001 268 10663ft 186kts
22-Jul-18 06:21 35.050911 -106.608863 267 10663ft 186kts
22-Jul-18 06:22 35.048945 -106.665785 267 10663ft 186kts
22-Jul-18 06:23 35.046857 -106.725405 267 10663ft 186kts
22-Jul-18 06:24 35.044358 -106.795786 267 10662ft 186kts
22-Jul-18 06:25 35.051569 -106.852199 286 10686ft 184kts
22-Jul-18 06:26 35.061738 -106.898801 285 10690ft 185kts
22-Jul-18 06:27 35.074448 -106.956971 285 10690ft 184kts
22-Jul-18 06:28 35.086993 -107.014462 285 10690ft 185kts
22-Jul-18 06:29 35.099161 -107.070424 285 10690ft 185kts
22-Jul-18 06:30 35.111328 -107.126449 285 10690ft 186kts
22-Jul-18 06:31 35.123360 -107.181967 285 10691ft 186kts
22-Jul-18 06:32 35.135681 -107.238996 285 10690ft 186kts
22-Jul-18 06:33 35.147721 -107.294877 286 11087ft 168kts
22-Jul-18 06:34 35.158815 -107.346475 285 11367ft 168kts
22-Jul-18 06:35 35.170110 -107.399098 285 11647ft 169kts
22-Jul-18 06:36 35.181044 -107.450162 286 11943ft 167kts
22-Jul-18 06:37 35.191796 -107.500502 286 12202ft 168kts
22-Jul-18 06:38 35.202756 -107.551906 285 12448ft 169kts
22-Jul-18 06:39 35.213842 -107.604018 285 12679ft 169kts
22-Jul-18 06:40 35.224481 -107.654149 285 12772ft 176kts
22-Jul-18 06:41 35.235240 -107.704940 285 12771ft 181kts
22-Jul-18 06:42 35.246635 -107.758861 285 12771ft 183kts
22-Jul-18 06:43 35.258714 -107.816215 285 12774ft 184kts
22-Jul-18 06:44 35.270764 -107.873542 285 12771ft 184kts
22-Jul-18 06:45 35.282703 -107.930478 285 12772ft 184kts
22-Jul-18 06:46 35.294647 -107.987614 285 12772ft 184kts
22-Jul-18 06:47 35.306553 -108.044662 284 12536ft 196kts
22-Jul-18 06:48 35.318363 -108.101440 285 12213ft 198kts
22-Jul-18 06:49 35.330061 -108.157820 285 11950ft 197kts
22-Jul-18 06:50 35.342475 -108.217756 285 11692ft 196kts
22-Jul-18 06:51 35.354625 -108.276609 285 11444ft 195kts
22-Jul-18 06:52 35.366727 -108.335380 285 11210ft 195kts
22-Jul-18 06:53 35.379121 -108.395734 285 10799ft 200kts
22-Jul-18 06:54 35.391531 -108.456283 284 10452ft 200kts
22-Jul-18 06:55 35.403437 -108.514663 284 10451ft 190kts
22-Jul-18 06:56 35.415027 -108.571611 284 10447ft 188kts
22-Jul-18 06:57 35.426272 -108.626952 284 10451ft 187kts
22-Jul-18 06:58 35.435815 -108.674058 283 10451ft 186kts
22-Jul-18 06:59 35.445776 -108.723370 283 10451ft 187kts
22-Jul-18 07:00 35.456021 -108.774141 284 10452ft 187kts
22-Jul-18 07:01 35.466393 -108.825665 283 10451ft 186kts
22-Jul-18 07:02 35.473938 -108.877453 259 10451ft 186kts
22-Jul-18 07:03 35.463639 -108.930929 255 10450ft 186kts
22-Jul-18 07:04 35.452198 -108.986586 255 10451ft 186kts
22-Jul-18 07:05 35.439988 -109.045381 255 10478ft 186kts
22-Jul-18 07:06 35.427764 -109.104069 255 10480ft 186kts
22-Jul-18 07:07 35.415160 -109.164384 255 10477ft 186kts
22-Jul-18 07:08 35.402515 -109.224742 256 10484ft 186kts
22-Jul-18 07:09 35.389994 -109.284334 255 10478ft 187kts
22-Jul-18 07:10 35.377462 -109.343831 255 10476ft 186kts
22-Jul-18 07:11 35.364685 -109.404318 255 10478ft 187kts
22-Jul-18 07:12 35.351928 -109.464526 255 10478ft 187kts
22-Jul-18 07:13 35.338963 -109.525593 256 10480ft 186kts
22-Jul-18 07:14 35.326020 -109.586396 255 10478ft 186kts
22-Jul-18 07:15 35.313124 -109.646746 255 10477ft 187kts
22-Jul-18 07:16 35.301743 -109.699937 255 10477ft 186kts
22-Jul-18 07:17 35.288962 -109.759483 254 10473ft 187kts
22-Jul-18 07:18 35.275979 -109.819825 255 10478ft 187kts
22-Jul-18 07:19 35.262878 -109.880563 255 10476ft 187kts
22-Jul-18 07:20 35.249616 -109.941868 255 10478ft 187kts
22-Jul-18 07:21 35.236400 -110.002803 255 10478ft 187kts
22-Jul-18 07:22 35.222979 -110.064533 255 10370ft 189kts
22-Jul-18 07:23 35.209634 -110.125721 255 10370ft 187kts
22-Jul-18 07:24 35.196302 -110.186718 255 10370ft 187kts
22-Jul-18 07:25 35.183057 -110.247171 255 10370ft 187kts
22-Jul-18 07:26 35.169735 -110.307793 255 10371ft 187kts
22-Jul-18 07:27 35.156583 -110.367500 255 10368ft 186kts
22-Jul-18 07:28 35.143230 -110.427960 255 10372ft 187kts
22-Jul-18 07:29 35.129778 -110.488711 255 10371ft 187kts
22-Jul-18 07:30 35.116242 -110.549698 255 10368ft 186kts
22-Jul-18 07:31 35.102809 -110.610031 255 10370ft 187kts
22-Jul-18 07:32 35.090392 -110.665683 254 10370ft 186kts
22-Jul-18 07:33 35.077571 -110.723002 254 10368ft 186kts
22-Jul-18 07:34 35.064723 -110.780324 254 10370ft 186kts
22-Jul-18 07:35 35.065901 -110.838350 276 10367ft 186kts
22-Jul-18 07:36 35.071776 -110.897693 276 10370ft 187kts
22-Jul-18 07:37 35.077859 -110.958670 276 10371ft 187kts
22-Jul-18 07:38 35.084039 -111.020795 276 10376ft 187kts
22-Jul-18 07:39 35.090234 -111.083374 276 10370ft 187kts
22-Jul-18 07:40 35.096379 -111.145842 277 10370ft 187kts
22-Jul-18 07:41 35.102325 -111.206717 277 10373ft 187kts
22-Jul-18 07:42 35.108252 -111.267402 277 10506ft 183kts
22-Jul-18 07:43 35.113909 -111.325843 278 10507ft 185kts
22-Jul-18 07:44 35.119515 -111.383993 277 10505ft 186kts
22-Jul-18 07:45 35.125079 -111.442063 278 10509ft 186kts
22-Jul-18 07:46 35.130463 -111.498553 277 10507ft 186kts
22-Jul-18 07:47 35.135742 -111.554330 277 10506ft 187kts
22-Jul-18 07:48 35.141121 -111.611217 278 10473ft 188kts
22-Jul-18 07:49 35.146807 -111.664406 292 10471ft 186kts
22-Jul-18 07:50 35.170089 -111.708552 305 10479ft 185kts
22-Jul-18 07:51 35.195601 -111.753105 305 10475ft 185kts
22-Jul-18 07:52 35.220448 -111.795966 306 10478ft 185kts
22-Jul-18 07:53 35.246112 -111.840191 306 10452ft 186kts
22-Jul-18 07:54 35.272437 -111.885585 306 10500ft 184kts
22-Jul-18 07:55 35.298675 -111.930881 306 10496ft 185kts
22-Jul-18 07:56 35.324710 -111.975893 306 10495ft 185kts
22-Jul-18 07:57 35.351113 -112.021583 306 10497ft 185kts
22-Jul-18 07:58 35.378001 -112.068198 306 10498ft 185kts
22-Jul-18 07:59 35.404458 -112.114130 306 10495ft 185kts
22-Jul-18 08:00 35.431408 -112.160968 306 10496ft 185kts
22-Jul-18 08:01 35.457595 -112.206531 306 10500ft 185kts
22-Jul-18 08:02 35.483692 -112.251907 306 10497ft 185kts
22-Jul-18 08:03 35.509381 -112.296726 306 10496ft 185kts
22-Jul-18 08:04 35.535548 -112.342420 305 10495ft 185kts
22-Jul-18 08:05 35.561354 -112.387577 305 10488ft 183kts
22-Jul-18 08:06 35.590934 -112.420647 353 9997ft 170kts
22-Jul-18 08:07 35.625765 -112.421002 1 10022ft 164kts
22-Jul-18 08:08 35.660670 -112.418958 1 10023ft 169kts
22-Jul-18 08:09 35.695997 -112.414225 27 10020ft 175kts
22-Jul-18 08:10 35.726655 -112.384832 38 10023ft 180kts
22-Jul-18 08:11 35.757963 -112.351912 40 9405ft 192kts
22-Jul-18 08:12 35.788532 -112.319692 41 8646ft 195kts
22-Jul-18 08:13 35.821477 -112.300792 35 8221ft 179kts
22-Jul-18 08:14 35.846738 -112.276710 39 8222ft 157kts
22-Jul-18 08:15 35.868396 -112.255432 39 8225ft 145kts
22-Jul-18 08:16 35.885370 -112.238792 39 8222ft 143kts
22-Jul-18 08:17 35.909999 -112.214671 39 7881ft 159kts
22-Jul-18 08:18 35.935938 -112.189070 39 7400ft 158kts
22-Jul-18 08:19 35.961207 -112.164253 39 7220ft 136kts
22-Jul-18 08:20 35.981848 -112.144284 39 7226ft 102kts
22-Jul-18 08:21 35.974922 -112.127614 182 6993ft 82kts
22-Jul-18 08:22 35.959141 -112.139646 214 6626ft 27kts
22-Jul-18 08:23 35.956408 -112.141324 132 6619ft 1kts
22-Jul-18 08:24 35.957607 -112.139563 40 6623ft 18kts
22-Jul-18 08:25 35.959831 -112.136323 38 6629ft 0kts
22-Jul-18 08:26 35.959831 -112.136323 38 6629ft 0kts

Navigation Log

Ident Type
Flight plan parsing failed, navigation log unavailable